sensor_id;sensor_type;location;lat;lon;timestamp;P1;durP1;ratioP1;P2;durP2;ratioP2
20379;SDS011;10349;48.666;8.948;2022-11-15T00:02:07;5.43;;;4.13;;
20379;SDS011;10349;48.666;8.948;2022-11-15T00:04:51;5.00;;;4.67;;
20379;SDS011;10349;48.666;8.948;2022-11-15T00:07:35;4.17;;;3.87;;
20379;SDS011;10349;48.666;8.948;2022-11-15T00:10:19;4.83;;;3.97;;
20379;SDS011;10349;48.666;8.948;2022-11-15T00:13:07;5.17;;;4.77;;
20379;SDS011;10349;48.666;8.948;2022-11-15T00:15:52;4.53;;;4.13;;
20379;SDS011;10349;48.666;8.948;2022-11-15T00:18:40;4.93;;;4.20;;
20379;SDS011;10349;48.666;8.948;2022-11-15T00:21:24;4.77;;;4.47;;
20379;SDS011;10349;48.666;8.948;2022-11-15T00:24:08;4.30;;;3.90;;
20379;SDS011;10349;48.666;8.948;2022-11-15T00:26:52;5.73;;;4.73;;
20379;SDS011;10349;48.666;8.948;2022-11-15T00:29:37;5.60;;;4.80;;
20379;SDS011;10349;48.666;8.948;2022-11-15T00:32:22;6.00;;;5.30;;
20379;SDS011;10349;48.666;8.948;2022-11-15T00:35:06;5.10;;;4.60;;
20379;SDS011;10349;48.666;8.948;2022-11-15T00:37:51;4.83;;;4.43;;
20379;SDS011;10349;48.666;8.948;2022-11-15T00:40:36;7.40;;;4.60;;
20379;SDS011;10349;48.666;8.948;2022-11-15T00:43:20;4.90;;;4.60;;
20379;SDS011;10349;48.666;8.948;2022-11-15T00:46:04;6.33;;;4.70;;
20379;SDS011;10349;48.666;8.948;2022-11-15T00:48:49;5.40;;;4.90;;
20379;SDS011;10349;48.666;8.948;2022-11-15T00:51:33;4.13;;;3.80;;
20379;SDS011;10349;48.666;8.948;2022-11-15T00:54:17;10.03;;;4.93;;
20379;SDS011;10349;48.666;8.948;2022-11-15T00:57:01;6.80;;;4.90;;
20379;SDS011;10349;48.666;8.948;2022-11-15T00:59:45;5.53;;;4.73;;
20379;SDS011;10349;48.666;8.948;2022-11-15T01:02:30;5.07;;;4.63;;
20379;SDS011;10349;48.666;8.948;2022-11-15T01:05:14;5.03;;;4.67;;
20379;SDS011;10349;48.666;8.948;2022-11-15T01:07:58;6.33;;;4.57;;
20379;SDS011;10349;48.666;8.948;2022-11-15T01:10:42;4.53;;;4.13;;
20379;SDS011;10349;48.666;8.948;2022-11-15T01:13:28;8.33;;;5.20;;
20379;SDS011;10349;48.666;8.948;2022-11-15T01:16:15;6.63;;;5.17;;
20379;SDS011;10349;48.666;8.948;2022-11-15T01:19:03;8.10;;;4.93;;
20379;SDS011;10349;48.666;8.948;2022-11-15T01:21:50;4.67;;;4.23;;
20379;SDS011;10349;48.666;8.948;2022-11-15T01:24:34;4.73;;;4.30;;
20379;SDS011;10349;48.666;8.948;2022-11-15T01:27:18;4.47;;;4.07;;
20379;SDS011;10349;48.666;8.948;2022-11-15T01:30:03;6.30;;;5.37;;
20379;SDS011;10349;48.666;8.948;2022-11-15T01:32:48;5.20;;;4.67;;
20379;SDS011;10349;48.666;8.948;2022-11-15T01:35:32;4.63;;;4.33;;
20379;SDS011;10349;48.666;8.948;2022-11-15T01:38:16;4.73;;;4.33;;
20379;SDS011;10349;48.666;8.948;2022-11-15T01:41:00;3.60;;;3.33;;
20379;SDS011;10349;48.666;8.948;2022-11-15T01:43:44;4.03;;;3.80;;
20379;SDS011;10349;48.666;8.948;2022-11-15T01:46:35;4.23;;;3.80;;
20379;SDS011;10349;48.666;8.948;2022-11-15T01:49:21;7.20;;;3.73;;
20379;SDS011;10349;48.666;8.948;2022-11-15T01:52:09;4.93;;;4.47;;
20379;SDS011;10349;48.666;8.948;2022-11-15T01:55:22;3.63;;;3.33;;
20379;SDS011;10349;48.666;8.948;2022-11-15T01:58:06;3.67;;;3.37;;
20379;SDS011;10349;48.666;8.948;2022-11-15T02:00:51;4.90;;;4.00;;
20379;SDS011;10349;48.666;8.948;2022-11-15T02:03:38;3.63;;;3.33;;
20379;SDS011;10349;48.666;8.948;2022-11-15T02:06:30;3.57;;;3.37;;
20379;SDS011;10349;48.666;8.948;2022-11-15T02:09:14;3.87;;;3.57;;
20379;SDS011;10349;48.666;8.948;2022-11-15T02:11:59;2.73;;;2.53;;
20379;SDS011;10349;48.666;8.948;2022-11-15T02:14:45;3.70;;;3.40;;
20379;SDS011;10349;48.666;8.948;2022-11-15T02:17:53;3.60;;;3.40;;
20379;SDS011;10349;48.666;8.948;2022-11-15T02:24:27;4.93;;;3.20;;
20379;SDS011;10349;48.666;8.948;2022-11-15T02:27:06;3.73;;;3.47;;
20379;SDS011;10349;48.666;8.948;2022-11-15T02:30:17;2.73;;;2.53;;
20379;SDS011;10349;48.666;8.948;2022-11-15T02:33:35;3.87;;;3.63;;
20379;SDS011;10349;48.666;8.948;2022-11-15T02:36:28;4.93;;;3.10;;
20379;SDS011;10349;48.666;8.948;2022-11-15T02:39:37;3.63;;;3.20;;
20379;SDS011;10349;48.666;8.948;2022-11-15T02:42:32;3.70;;;3.40;;
20379;SDS011;10349;48.666;8.948;2022-11-15T02:46:23;16.40;;;3.10;;
20379;SDS011;10349;48.666;8.948;2022-11-15T02:48:48;3.00;;;2.80;;
20379;SDS011;10349;48.666;8.948;2022-11-15T02:51:32;6.23;;;3.50;;
20379;SDS011;10349;48.666;8.948;2022-11-15T02:54:22;6.13;;;3.13;;
20379;SDS011;10349;48.666;8.948;2022-11-15T02:57:12;3.70;;;3.17;;
20379;SDS011;10349;48.666;8.948;2022-11-15T03:00:08;3.37;;;2.97;;
20379;SDS011;10349;48.666;8.948;2022-11-15T03:03:11;6.87;;;4.30;;
20379;SDS011;10349;48.666;8.948;2022-11-15T03:12:24;3.93;;;3.63;;
20379;SDS011;10349;48.666;8.948;2022-11-15T03:15:32;3.77;;;3.20;;
20379;SDS011;10349;48.666;8.948;2022-11-15T03:18:23;6.47;;;3.17;;
20379;SDS011;10349;48.666;8.948;2022-11-15T03:21:15;3.73;;;3.33;;
20379;SDS011;10349;48.666;8.948;2022-11-15T03:24:03;4.13;;;3.30;;
20379;SDS011;10349;48.666;8.948;2022-11-15T03:26:50;3.60;;;3.30;;
20379;SDS011;10349;48.666;8.948;2022-11-15T03:29:38;3.67;;;3.37;;
20379;SDS011;10349;48.666;8.948;2022-11-15T03:32:28;4.27;;;3.20;;
20379;SDS011;10349;48.666;8.948;2022-11-15T03:35:17;4.87;;;3.93;;
20379;SDS011;10349;48.666;8.948;2022-11-15T03:38:21;4.30;;;3.50;;
20379;SDS011;10349;48.666;8.948;2022-11-15T03:41:11;4.23;;;3.50;;
20379;SDS011;10349;48.666;8.948;2022-11-15T03:44:04;4.00;;;3.60;;
20379;SDS011;10349;48.666;8.948;2022-11-15T03:47:21;3.70;;;2.70;;
20379;SDS011;10349;48.666;8.948;2022-11-15T03:50:17;3.90;;;3.23;;
20379;SDS011;10349;48.666;8.948;2022-11-15T03:53:03;6.80;;;3.50;;
20379;SDS011;10349;48.666;8.948;2022-11-15T03:55:48;2.93;;;2.73;;
20379;SDS011;10349;48.666;8.948;2022-11-15T03:58:32;4.33;;;3.60;;
20379;SDS011;10349;48.666;8.948;2022-11-15T04:01:16;3.50;;;3.30;;
20379;SDS011;10349;48.666;8.948;2022-11-15T04:04:00;4.30;;;3.50;;
20379;SDS011;10349;48.666;8.948;2022-11-15T04:06:44;3.47;;;3.17;;
20379;SDS011;10349;48.666;8.948;2022-11-15T04:09:28;5.10;;;4.43;;
20379;SDS011;10349;48.666;8.948;2022-11-15T04:12:12;4.27;;;3.87;;
20379;SDS011;10349;48.666;8.948;2022-11-15T04:15:15;5.30;;;4.67;;
20379;SDS011;10349;48.666;8.948;2022-11-15T04:18:03;9.07;;;5.80;;
20379;SDS011;10349;48.666;8.948;2022-11-15T04:20:48;11.67;;;7.10;;
20379;SDS011;10349;48.666;8.948;2022-11-15T04:23:51;9.00;;;5.60;;
20379;SDS011;10349;48.666;8.948;2022-11-15T04:26:35;12.53;;;6.80;;
20379;SDS011;10349;48.666;8.948;2022-11-15T04:29:19;6.97;;;5.43;;
20379;SDS011;10349;48.666;8.948;2022-11-15T04:32:18;7.37;;;5.10;;
20379;SDS011;10349;48.666;8.948;2022-11-15T04:35:03;5.97;;;5.03;;
20379;SDS011;10349;48.666;8.948;2022-11-15T04:37:47;7.80;;;5.97;;
20379;SDS011;10349;48.666;8.948;2022-11-15T04:40:32;6.57;;;4.80;;
20379;SDS011;10349;48.666;8.948;2022-11-15T04:43:16;6.13;;;5.20;;
20379;SDS011;10349;48.666;8.948;2022-11-15T04:46:00;7.57;;;6.30;;
20379;SDS011;10349;48.666;8.948;2022-11-15T04:48:44;6.10;;;5.23;;
20379;SDS011;10349;48.666;8.948;2022-11-15T04:51:28;4.87;;;4.37;;
20379;SDS011;10349;48.666;8.948;2022-11-15T04:54:12;5.80;;;4.83;;
20379;SDS011;10349;48.666;8.948;2022-11-15T04:56:56;6.33;;;5.10;;
20379;SDS011;10349;48.666;8.948;2022-11-15T04:59:40;16.73;;;7.13;;
20379;SDS011;10349;48.666;8.948;2022-11-15T05:02:24;5.80;;;4.77;;
20379;SDS011;10349;48.666;8.948;2022-11-15T05:05:29;5.00;;;4.60;;
20379;SDS011;10349;48.666;8.948;2022-11-15T05:08:13;6.27;;;5.20;;
20379;SDS011;10349;48.666;8.948;2022-11-15T05:10:57;6.60;;;4.93;;
20379;SDS011;10349;48.666;8.948;2022-11-15T05:13:41;12.20;;;4.87;;
20379;SDS011;10349;48.666;8.948;2022-11-15T05:16:25;12.93;;;6.23;;
20379;SDS011;10349;48.666;8.948;2022-11-15T05:19:10;13.00;;;7.50;;
20379;SDS011;10349;48.666;8.948;2022-11-15T05:21:54;8.47;;;5.90;;
20379;SDS011;10349;48.666;8.948;2022-11-15T05:24:38;5.87;;;5.27;;
20379;SDS011;10349;48.666;8.948;2022-11-15T05:27:22;5.83;;;5.33;;
20379;SDS011;10349;48.666;8.948;2022-11-15T05:30:06;5.27;;;4.77;;
20379;SDS011;10349;48.666;8.948;2022-11-15T05:32:50;5.07;;;4.70;;
20379;SDS011;10349;48.666;8.948;2022-11-15T05:35:37;4.87;;;4.47;;
20379;SDS011;10349;48.666;8.948;2022-11-15T05:38:24;3.67;;;3.43;;
20379;SDS011;10349;48.666;8.948;2022-11-15T05:41:09;5.47;;;4.00;;
20379;SDS011;10349;48.666;8.948;2022-11-15T05:43:54;4.33;;;3.93;;
20379;SDS011;10349;48.666;8.948;2022-11-15T05:46:39;4.03;;;3.63;;
20379;SDS011;10349;48.666;8.948;2022-11-15T05:49:26;4.10;;;3.40;;
20379;SDS011;10349;48.666;8.948;2022-11-15T05:52:14;3.70;;;3.40;;
20379;SDS011;10349;48.666;8.948;2022-11-15T05:55:03;5.37;;;4.53;;
20379;SDS011;10349;48.666;8.948;2022-11-15T05:57:50;7.63;;;4.80;;
20379;SDS011;10349;48.666;8.948;2022-11-15T06:00:34;4.10;;;3.80;;
20379;SDS011;10349;48.666;8.948;2022-11-15T06:03:18;6.57;;;5.03;;
20379;SDS011;10349;48.666;8.948;2022-11-15T06:06:02;4.97;;;4.63;;
20379;SDS011;10349;48.666;8.948;2022-11-15T06:08:46;5.53;;;4.80;;
20379;SDS011;10349;48.666;8.948;2022-11-15T06:11:31;5.83;;;5.03;;
20379;SDS011;10349;48.666;8.948;2022-11-15T06:14:15;7.40;;;5.07;;
20379;SDS011;10349;48.666;8.948;2022-11-15T06:17:00;8.20;;;6.30;;
20379;SDS011;10349;48.666;8.948;2022-11-15T06:19:44;7.50;;;5.63;;
20379;SDS011;10349;48.666;8.948;2022-11-15T06:22:28;7.90;;;7.07;;
20379;SDS011;10349;48.666;8.948;2022-11-15T06:25:12;12.70;;;7.20;;
20379;SDS011;10349;48.666;8.948;2022-11-15T06:27:57;10.43;;;7.47;;
20379;SDS011;10349;48.666;8.948;2022-11-15T06:30:42;11.43;;;7.43;;
20379;SDS011;10349;48.666;8.948;2022-11-15T06:33:26;16.47;;;8.50;;
20379;SDS011;10349;48.666;8.948;2022-11-15T06:36:12;8.93;;;7.00;;
20379;SDS011;10349;48.666;8.948;2022-11-15T06:39:00;7.20;;;6.50;;
20379;SDS011;10349;48.666;8.948;2022-11-15T06:41:46;7.63;;;5.77;;
20379;SDS011;10349;48.666;8.948;2022-11-15T06:44:30;7.20;;;6.07;;
20379;SDS011;10349;48.666;8.948;2022-11-15T06:47:14;8.27;;;5.80;;
20379;SDS011;10349;48.666;8.948;2022-11-15T06:49:58;6.00;;;5.23;;
20379;SDS011;10349;48.666;8.948;2022-11-15T06:52:43;9.10;;;5.27;;
20379;SDS011;10349;48.666;8.948;2022-11-15T06:55:27;5.57;;;4.93;;
20379;SDS011;10349;48.666;8.948;2022-11-15T06:58:11;5.80;;;5.30;;
20379;SDS011;10349;48.666;8.948;2022-11-15T07:01:14;8.30;;;5.17;;
20379;SDS011;10349;48.666;8.948;2022-11-15T07:03:59;7.30;;;5.60;;
20379;SDS011;10349;48.666;8.948;2022-11-15T07:06:45;5.53;;;5.03;;
20379;SDS011;10349;48.666;8.948;2022-11-15T07:09:32;5.20;;;4.40;;
20379;SDS011;10349;48.666;8.948;2022-11-15T07:12:16;5.53;;;5.13;;
20379;SDS011;10349;48.666;8.948;2022-11-15T07:15:00;5.30;;;4.80;;
20379;SDS011;10349;48.666;8.948;2022-11-15T07:17:45;4.57;;;4.17;;
20379;SDS011;10349;48.666;8.948;2022-11-15T07:20:29;6.77;;;5.00;;
20379;SDS011;10349;48.666;8.948;2022-11-15T07:23:13;6.37;;;4.70;;
20379;SDS011;10349;48.666;8.948;2022-11-15T07:25:57;3.93;;;3.63;;
20379;SDS011;10349;48.666;8.948;2022-11-15T07:28:42;5.17;;;4.73;;
20379;SDS011;10349;48.666;8.948;2022-11-15T07:31:26;4.10;;;3.80;;
20379;SDS011;10349;48.666;8.948;2022-11-15T07:34:11;4.40;;;4.00;;
20379;SDS011;10349;48.666;8.948;2022-11-15T07:36:55;6.27;;;4.00;;
20379;SDS011;10349;48.666;8.948;2022-11-15T07:39:39;4.50;;;4.10;;
20379;SDS011;10349;48.666;8.948;2022-11-15T07:42:23;4.27;;;3.97;;
20379;SDS011;10349;48.666;8.948;2022-11-15T07:45:26;4.63;;;4.27;;
20379;SDS011;10349;48.666;8.948;2022-11-15T07:48:11;10.43;;;4.40;;
20379;SDS011;10349;48.666;8.948;2022-11-15T07:50:55;4.40;;;4.10;;
20379;SDS011;10349;48.666;8.948;2022-11-15T07:53:39;5.90;;;4.43;;
20379;SDS011;10349;48.666;8.948;2022-11-15T07:56:24;7.00;;;4.10;;
20379;SDS011;10349;48.666;8.948;2022-11-15T07:59:08;5.00;;;4.70;;
20379;SDS011;10349;48.666;8.948;2022-11-15T08:01:52;6.10;;;5.60;;
20379;SDS011;10349;48.666;8.948;2022-11-15T08:04:36;4.93;;;4.53;;
20379;SDS011;10349;48.666;8.948;2022-11-15T08:07:20;8.13;;;6.60;;
20379;SDS011;10349;48.666;8.948;2022-11-15T08:10:04;9.40;;;6.40;;
20379;SDS011;10349;48.666;8.948;2022-11-15T08:13:05;9.53;;;6.70;;
20379;SDS011;10349;48.666;8.948;2022-11-15T08:15:51;9.27;;;6.20;;
20379;SDS011;10349;48.666;8.948;2022-11-15T08:18:35;9.27;;;7.47;;
20379;SDS011;10349;48.666;8.948;2022-11-15T08:21:19;12.23;;;6.67;;
20379;SDS011;10349;48.666;8.948;2022-11-15T08:24:04;9.90;;;8.00;;
20379;SDS011;10349;48.666;8.948;2022-11-15T08:26:49;8.23;;;7.00;;
20379;SDS011;10349;48.666;8.948;2022-11-15T08:29:33;8.17;;;7.43;;
20379;SDS011;10349;48.666;8.948;2022-11-15T08:32:17;8.27;;;7.37;;
20379;SDS011;10349;48.666;8.948;2022-11-15T08:35:01;9.40;;;8.20;;
20379;SDS011;10349;48.666;8.948;2022-11-15T08:37:45;8.30;;;7.50;;
20379;SDS011;10349;48.666;8.948;2022-11-15T08:40:29;6.90;;;5.70;;
20379;SDS011;10349;48.666;8.948;2022-11-15T08:43:13;11.73;;;7.93;;
20379;SDS011;10349;48.666;8.948;2022-11-15T08:45:58;11.20;;;7.40;;
20379;SDS011;10349;48.666;8.948;2022-11-15T08:48:42;8.90;;;7.57;;
20379;SDS011;10349;48.666;8.948;2022-11-15T08:51:26;9.57;;;7.77;;
20379;SDS011;10349;48.666;8.948;2022-11-15T08:54:10;8.47;;;7.30;;
20379;SDS011;10349;48.666;8.948;2022-11-15T08:56:55;7.27;;;6.60;;
20379;SDS011;10349;48.666;8.948;2022-11-15T08:59:39;9.63;;;6.20;;
20379;SDS011;10349;48.666;8.948;2022-11-15T09:02:23;9.37;;;6.20;;
20379;SDS011;10349;48.666;8.948;2022-11-15T09:05:08;6.53;;;6.00;;
20379;SDS011;10349;48.666;8.948;2022-11-15T09:07:55;6.40;;;5.73;;
20379;SDS011;10349;48.666;8.948;2022-11-15T09:10:39;7.93;;;6.23;;
20379;SDS011;10349;48.666;8.948;2022-11-15T09:13:23;11.83;;;6.00;;
20379;SDS011;10349;48.666;8.948;2022-11-15T09:16:08;8.10;;;6.47;;
20379;SDS011;10349;48.666;8.948;2022-11-15T09:18:52;7.30;;;6.60;;
20379;SDS011;10349;48.666;8.948;2022-11-15T09:21:37;9.10;;;6.37;;
20379;SDS011;10349;48.666;8.948;2022-11-15T09:24:21;7.07;;;5.80;;
20379;SDS011;10349;48.666;8.948;2022-11-15T09:27:06;14.70;;;7.33;;
20379;SDS011;10349;48.666;8.948;2022-11-15T09:29:50;6.13;;;4.73;;
20379;SDS011;10349;48.666;8.948;2022-11-15T09:32:34;6.63;;;5.43;;
20379;SDS011;10349;48.666;8.948;2022-11-15T09:35:19;6.67;;;4.80;;
20379;SDS011;10349;48.666;8.948;2022-11-15T09:38:03;8.13;;;5.37;;
20379;SDS011;10349;48.666;8.948;2022-11-15T09:40:49;6.70;;;6.10;;
20379;SDS011;10349;48.666;8.948;2022-11-15T09:43:45;6.50;;;5.13;;
20379;SDS011;10349;48.666;8.948;2022-11-15T09:46:36;5.10;;;4.00;;
20379;SDS011;10349;48.666;8.948;2022-11-15T09:49:51;5.30;;;3.63;;
20379;SDS011;10349;48.666;8.948;2022-11-15T09:52:25;4.00;;;3.70;;
20379;SDS011;10349;48.666;8.948;2022-11-15T09:54:52;3.63;;;3.43;;
20379;SDS011;10349;48.666;8.948;2022-11-15T10:00:04;4.30;;;3.90;;
20379;SDS011;10349;48.666;8.948;2022-11-15T10:05:55;4.27;;;3.87;;
20379;SDS011;10349;48.666;8.948;2022-11-15T10:08:37;4.47;;;4.17;;
20379;SDS011;10349;48.666;8.948;2022-11-15T10:11:22;4.97;;;4.53;;
20379;SDS011;10349;48.666;8.948;2022-11-15T10:13:50;5.90;;;4.83;;
20379;SDS011;10349;48.666;8.948;2022-11-15T10:21:51;3.93;;;3.30;;
20379;SDS011;10349;48.666;8.948;2022-11-15T10:24:43;3.70;;;3.40;;
20379;SDS011;10349;48.666;8.948;2022-11-15T10:27:15;4.00;;;3.57;;
20379;SDS011;10349;48.666;8.948;2022-11-15T10:29:42;3.80;;;3.50;;
20379;SDS011;10349;48.666;8.948;2022-11-15T10:32:18;4.20;;;3.80;;
20379;SDS011;10349;48.666;8.948;2022-11-15T10:34:46;6.57;;;3.00;;
20379;SDS011;10349;48.666;8.948;2022-11-15T10:37:13;6.43;;;4.00;;
20379;SDS011;10349;48.666;8.948;2022-11-15T10:39:38;4.47;;;4.13;;
20379;SDS011;10349;48.666;8.948;2022-11-15T10:44:49;3.47;;;3.17;;
20379;SDS011;10349;48.666;8.948;2022-11-15T10:52:25;2.80;;;2.57;;
20379;SDS011;10349;48.666;8.948;2022-11-15T10:55:02;4.03;;;3.70;;
20379;SDS011;10349;48.666;8.948;2022-11-15T10:57:48;4.33;;;2.63;;
20379;SDS011;10349;48.666;8.948;2022-11-15T11:03:20;3.40;;;2.53;;
20379;SDS011;10349;48.666;8.948;2022-11-15T11:05:46;3.67;;;3.30;;
20379;SDS011;10349;48.666;8.948;2022-11-15T11:10:54;3.10;;;2.90;;
20379;SDS011;10349;48.666;8.948;2022-11-15T11:13:24;6.83;;;6.23;;
20379;SDS011;10349;48.666;8.948;2022-11-15T11:15:52;2.90;;;2.70;;
20379;SDS011;10349;48.666;8.948;2022-11-15T11:18:29;2.33;;;2.00;;
20379;SDS011;10349;48.666;8.948;2022-11-15T11:21:04;3.63;;;2.90;;
20379;SDS011;10349;48.666;8.948;2022-11-15T11:37:13;2.67;;;2.47;;
20379;SDS011;10349;48.666;8.948;2022-11-15T11:45:15;2.63;;;2.43;;
20379;SDS011;10349;48.666;8.948;2022-11-15T11:48:14;3.70;;;3.10;;
20379;SDS011;10349;48.666;8.948;2022-11-15T11:50:58;2.40;;;2.30;;
20379;SDS011;10349;48.666;8.948;2022-11-15T11:53:35;5.03;;;3.80;;
20379;SDS011;10349;48.666;8.948;2022-11-15T11:56:16;2.60;;;2.50;;
20379;SDS011;10349;48.666;8.948;2022-11-15T11:58:49;2.30;;;2.20;;
20379;SDS011;10349;48.666;8.948;2022-11-15T12:03:57;3.50;;;3.20;;
20379;SDS011;10349;48.666;8.948;2022-11-15T12:06:32;3.00;;;2.80;;
20379;SDS011;10349;48.666;8.948;2022-11-15T12:11:58;4.30;;;3.90;;
20379;SDS011;10349;48.666;8.948;2022-11-15T12:14:35;4.60;;;2.63;;
20379;SDS011;10349;48.666;8.948;2022-11-15T12:17:13;2.60;;;2.40;;
20379;SDS011;10349;48.666;8.948;2022-11-15T12:19:41;5.40;;;3.33;;
20379;SDS011;10349;48.666;8.948;2022-11-15T12:22:19;7.50;;;2.57;;
20379;SDS011;10349;48.666;8.948;2022-11-15T12:24:50;6.53;;;3.20;;
20379;SDS011;10349;48.666;8.948;2022-11-15T12:27:27;9.40;;;6.97;;
20379;SDS011;10349;48.666;8.948;2022-11-15T12:30:03;3.10;;;2.83;;
20379;SDS011;10349;48.666;8.948;2022-11-15T12:32:37;3.20;;;3.00;;
20379;SDS011;10349;48.666;8.948;2022-11-15T12:35:20;3.43;;;2.93;;
20379;SDS011;10349;48.666;8.948;2022-11-15T12:37:53;4.60;;;4.30;;
20379;SDS011;10349;48.666;8.948;2022-11-15T12:40:23;3.60;;;2.90;;
20379;SDS011;10349;48.666;8.948;2022-11-15T12:45:49;3.30;;;2.57;;
20379;SDS011;10349;48.666;8.948;2022-11-15T12:58:41;3.57;;;3.27;;
20379;SDS011;10349;48.666;8.948;2022-11-15T13:06:49;5.70;;;2.83;;
20379;SDS011;10349;48.666;8.948;2022-11-15T13:09:50;3.50;;;2.43;;
20379;SDS011;10349;48.666;8.948;2022-11-15T13:12:09;3.47;;;2.40;;
20379;SDS011;10349;48.666;8.948;2022-11-15T13:17:25;3.17;;;2.93;;
20379;SDS011;10349;48.666;8.948;2022-11-15T13:20:02;2.97;;;2.67;;
20379;SDS011;10349;48.666;8.948;2022-11-15T13:28:27;8.13;;;7.53;;
20379;SDS011;10349;48.666;8.948;2022-11-15T13:31:01;6.07;;;5.67;;
20379;SDS011;10349;48.666;8.948;2022-11-15T13:33:39;8.80;;;3.23;;
20379;SDS011;10349;48.666;8.948;2022-11-15T13:36:15;5.00;;;4.60;;
20379;SDS011;10349;48.666;8.948;2022-11-15T13:38:55;2.97;;;2.77;;
20379;SDS011;10349;48.666;8.948;2022-11-15T13:41:29;2.67;;;2.40;;
20379;SDS011;10349;48.666;8.948;2022-11-15T13:43:57;3.80;;;3.60;;
20379;SDS011;10349;48.666;8.948;2022-11-15T13:46:27;2.60;;;2.50;;
20379;SDS011;10349;48.666;8.948;2022-11-15T13:48:56;2.23;;;2.13;;
20379;SDS011;10349;48.666;8.948;2022-11-15T13:54:24;4.87;;;2.10;;
20379;SDS011;10349;48.666;8.948;2022-11-15T13:59:45;2.27;;;2.00;;
20379;SDS011;10349;48.666;8.948;2022-11-15T14:02:18;3.37;;;3.10;;
20379;SDS011;10349;48.666;8.948;2022-11-15T14:07:25;2.60;;;2.40;;
20379;SDS011;10349;48.666;8.948;2022-11-15T14:09:55;2.33;;;2.13;;
20379;SDS011;10349;48.666;8.948;2022-11-15T14:14:52;1.90;;;1.80;;
20379;SDS011;10349;48.666;8.948;2022-11-15T14:17:32;3.07;;;2.60;;
20379;SDS011;10349;48.666;8.948;2022-11-15T14:19:59;4.23;;;2.40;;
20379;SDS011;10349;48.666;8.948;2022-11-15T14:22:26;4.90;;;3.90;;
20379;SDS011;10349;48.666;8.948;2022-11-15T14:27:38;3.67;;;2.83;;
20379;SDS011;10349;48.666;8.948;2022-11-15T14:30:04;2.50;;;2.30;;
20379;SDS011;10349;48.666;8.948;2022-11-15T14:33:11;2.83;;;2.63;;
20379;SDS011;10349;48.666;8.948;2022-11-15T14:35:22;2.43;;;2.23;;
20379;SDS011;10349;48.666;8.948;2022-11-15T14:37:49;3.33;;;2.40;;
20379;SDS011;10349;48.666;8.948;2022-11-15T14:40:16;2.57;;;2.37;;
20379;SDS011;10349;48.666;8.948;2022-11-15T14:42:44;2.40;;;2.30;;
20379;SDS011;10349;48.666;8.948;2022-11-15T14:45:12;2.90;;;2.70;;
20379;SDS011;10349;48.666;8.948;2022-11-15T14:47:42;3.13;;;2.80;;
20379;SDS011;10349;48.666;8.948;2022-11-15T14:50:17;3.50;;;3.20;;
20379;SDS011;10349;48.666;8.948;2022-11-15T14:52:45;4.20;;;3.80;;
20379;SDS011;10349;48.666;8.948;2022-11-15T14:57:46;5.43;;;3.90;;
20379;SDS011;10349;48.666;8.948;2022-11-15T15:00:12;3.73;;;2.80;;
20379;SDS011;10349;48.666;8.948;2022-11-15T15:02:38;2.83;;;2.63;;
20379;SDS011;10349;48.666;8.948;2022-11-15T15:05:16;2.60;;;2.40;;
20379;SDS011;10349;48.666;8.948;2022-11-15T15:07:48;4.03;;;3.73;;
20379;SDS011;10349;48.666;8.948;2022-11-15T15:10:15;5.00;;;4.50;;
20379;SDS011;10349;48.666;8.948;2022-11-15T15:12:41;3.43;;;3.20;;
20379;SDS011;10349;48.666;8.948;2022-11-15T15:15:14;5.50;;;4.97;;
20379;SDS011;10349;48.666;8.948;2022-11-15T15:17:42;5.17;;;4.77;;
20379;SDS011;10349;48.666;8.948;2022-11-15T15:20:08;8.07;;;5.50;;
20379;SDS011;10349;48.666;8.948;2022-11-15T15:22:35;3.90;;;2.93;;
20379;SDS011;10349;48.666;8.948;2022-11-15T15:25:01;4.07;;;3.47;;
20379;SDS011;10349;48.666;8.948;2022-11-15T15:27:27;2.90;;;2.70;;
20379;SDS011;10349;48.666;8.948;2022-11-15T15:29:53;4.40;;;4.20;;
20379;SDS011;10349;48.666;8.948;2022-11-15T15:32:18;4.87;;;4.47;;
20379;SDS011;10349;48.666;8.948;2022-11-15T15:34:44;3.80;;;3.50;;
20379;SDS011;10349;48.666;8.948;2022-11-15T15:37:23;3.50;;;3.20;;
20379;SDS011;10349;48.666;8.948;2022-11-15T15:39:54;3.87;;;3.57;;
20379;SDS011;10349;48.666;8.948;2022-11-15T15:42:21;7.50;;;5.20;;
20379;SDS011;10349;48.666;8.948;2022-11-15T15:44:48;5.83;;;5.20;;
20379;SDS011;10349;48.666;8.948;2022-11-15T15:47:15;9.90;;;6.30;;
20379;SDS011;10349;48.666;8.948;2022-11-15T15:49:45;6.13;;;5.60;;
20379;SDS011;10349;48.666;8.948;2022-11-15T15:52:12;7.20;;;6.37;;
20379;SDS011;10349;48.666;8.948;2022-11-15T15:54:38;8.57;;;6.10;;
20379;SDS011;10349;48.666;8.948;2022-11-15T15:57:04;7.10;;;5.17;;
20379;SDS011;10349;48.666;8.948;2022-11-15T15:59:30;4.97;;;4.63;;
20379;SDS011;10349;48.666;8.948;2022-11-15T16:01:56;5.70;;;5.30;;
20379;SDS011;10349;48.666;8.948;2022-11-15T16:04:22;6.43;;;5.40;;
20379;SDS011;10349;48.666;8.948;2022-11-15T16:06:48;7.43;;;5.00;;
20379;SDS011;10349;48.666;8.948;2022-11-15T16:09:16;5.70;;;5.20;;
20379;SDS011;10349;48.666;8.948;2022-11-15T16:11:43;5.20;;;4.70;;
20379;SDS011;10349;48.666;8.948;2022-11-15T16:14:10;5.23;;;4.77;;
20379;SDS011;10349;48.666;8.948;2022-11-15T16:16:36;5.07;;;4.67;;
20379;SDS011;10349;48.666;8.948;2022-11-15T16:19:03;5.23;;;4.83;;
20379;SDS011;10349;48.666;8.948;2022-11-15T16:21:29;5.67;;;5.07;;
20379;SDS011;10349;48.666;8.948;2022-11-15T16:23:55;6.30;;;4.67;;
20379;SDS011;10349;48.666;8.948;2022-11-15T16:26:22;4.73;;;4.30;;
20379;SDS011;10349;48.666;8.948;2022-11-15T16:28:50;6.77;;;4.23;;
20379;SDS011;10349;48.666;8.948;2022-11-15T16:31:16;5.23;;;4.73;;
20379;SDS011;10349;48.666;8.948;2022-11-15T16:33:45;4.40;;;4.10;;
20379;SDS011;10349;48.666;8.948;2022-11-15T16:36:17;4.90;;;4.47;;
20379;SDS011;10349;48.666;8.948;2022-11-15T16:38:45;7.40;;;4.40;;
20379;SDS011;10349;48.666;8.948;2022-11-15T16:41:11;9.30;;;5.80;;
20379;SDS011;10349;48.666;8.948;2022-11-15T16:43:37;7.80;;;4.33;;
20379;SDS011;10349;48.666;8.948;2022-11-15T16:46:12;5.27;;;4.77;;
20379;SDS011;10349;48.666;8.948;2022-11-15T16:48:41;4.10;;;3.80;;
20379;SDS011;10349;48.666;8.948;2022-11-15T16:51:07;7.40;;;5.23;;
20379;SDS011;10349;48.666;8.948;2022-11-15T16:53:32;6.97;;;4.80;;
20379;SDS011;10349;48.666;8.948;2022-11-15T16:55:58;4.87;;;4.47;;
20379;SDS011;10349;48.666;8.948;2022-11-15T16:58:23;5.47;;;5.07;;
20379;SDS011;10349;48.666;8.948;2022-11-15T17:00:50;6.63;;;6.13;;
20379;SDS011;10349;48.666;8.948;2022-11-15T17:03:17;7.43;;;6.73;;
20379;SDS011;10349;48.666;8.948;2022-11-15T17:05:43;6.77;;;6.10;;
20379;SDS011;10349;48.666;8.948;2022-11-15T17:08:09;9.07;;;7.47;;
20379;SDS011;10349;48.666;8.948;2022-11-15T17:10:34;9.83;;;8.83;;
20379;SDS011;10349;48.666;8.948;2022-11-15T17:13:05;13.83;;;10.13;;
20379;SDS011;10349;48.666;8.948;2022-11-15T17:15:32;15.67;;;10.97;;
20379;SDS011;10349;48.666;8.948;2022-11-15T17:17:57;13.43;;;10.17;;
20379;SDS011;10349;48.666;8.948;2022-11-15T17:20:23;19.30;;;10.33;;
20379;SDS011;10349;48.666;8.948;2022-11-15T17:22:49;11.00;;;9.80;;
20379;SDS011;10349;48.666;8.948;2022-11-15T17:25:16;17.80;;;10.40;;
20379;SDS011;10349;48.666;8.948;2022-11-15T17:27:43;13.90;;;10.37;;
20379;SDS011;10349;48.666;8.948;2022-11-15T17:30:09;11.97;;;10.07;;
20379;SDS011;10349;48.666;8.948;2022-11-15T17:32:37;14.73;;;11.30;;
20379;SDS011;10349;48.666;8.948;2022-11-15T17:35:03;17.10;;;11.90;;
20379;SDS011;10349;48.666;8.948;2022-11-15T17:37:33;16.60;;;12.57;;
20379;SDS011;10349;48.666;8.948;2022-11-15T17:39:59;18.50;;;13.30;;
20379;SDS011;10349;48.666;8.948;2022-11-15T17:42:24;16.23;;;11.93;;
20379;SDS011;10349;48.666;8.948;2022-11-15T17:44:50;18.87;;;11.30;;
20379;SDS011;10349;48.666;8.948;2022-11-15T17:47:16;12.50;;;10.13;;